Airfield :
LOGIN :

Register | Disclaimer

   EN    FR    IT 

 










Legend :    VFR   Marginal VFR   IFR   Intensive IFR   Very Intensive IFR
Visi :
Ceiling :
>= 8 km
>= 3000ft
5 to 8 km
1000 to 3000 ft
1500m to 5 km
500 to 1000 ft
800 to 1500m
200 to 500 ft
< 800m
< 200 ft
Symbols :   Thunderstorms  Fog  Heavy snow  Heavy precipitations  Wind > 20 kt
SIGMETs :     Misc.  Thunderstorms  Icing  Turbulence  Mountain Waves  Volcanic Ashes






- Airport Elevation : 348 ft
- IATA code : STN


EGSS - London Stansted

CURRENT METAR :
  • 201420Z AUTO 19012KT 9999 SCT029 BKN035 17/12 Q1001

EXPIRED METARs :
  • 201350Z AUTO 20011KT 9999 SCT029 BKN035 BKN042 17/12 Q1001
  • 201320Z AUTO 21014KT 9999 BKN031 BKN039 17/12 Q1001
  • 201250Z AUTO 20015KT 9999 BKN028 17/12 Q1001
  • 201220Z AUTO 20013KT 9999 BKN026 18/13 Q1001
  • 201150Z AUTO 19015KT 9999 BKN024 BKN031 17/13 Q1001

TAF TAF EGSS
Valid from the 20 at 12:00 until the 21 at 18:00 UTC


201058Z 2012/2118 15012KT 9999 SCT025
TEMPO 2012/2018 20018G28KT
TEMPO 2021/2024 BKN012
TEMPO 2100/2112 6000 RADZ BKN006
BECMG 2102/2105 09008KT
PROB40
TEMPO 2102/2112 4000 +RA BKN004
ATIS : +44 1279 669 325



MET'MAP, your aeronautical weather chart ! - Copyright ORBIFLY December 2007 - Disclaimer

ORBIFLY MET'MAP TEAM :

Programming & Development : Alexandra Zaïnal
Concept & original design : Baudouin d'Aumeries
Assistance for programming : Marc-Olivier Méhu
Technical & hardware support : Manuel Goepfert

Contact : metmap@orbifly.com




SOURCES & CREDITS :

   NOAA